Time;durP1;ratioP1;P1;durP2;ratioP2;P2;SDS_P1;SDS_P2;PMS_P1;PMS_P2;Temp;Humidity;BMP_temperature;BMP_pressure;BME280_temperature;BME280_humidity;BME280_pressure;Samples;Min_cycle;Max_cycle;Signal;HPM_P1;HPM_P2
2021/05/10 00:01:07;;;;;;;2.60;2.40;;;13.70;68.90;;;;;;5084376;28;20211;-70
2021/05/10 00:03:34;;;;;;;3.80;2.00;;;13.70;69.10;;;;;;5091504;28;20203;-70
2021/05/10 00:06:00;;;;;;;3.93;2.70;;;13.70;69.30;;;;;;5083662;28;20209;-69
2021/05/10 00:08:27;;;;;;;3.77;2.43;;;13.70;69.60;;;;;;5084129;28;20723;-71
2021/05/10 00:10:55;;;;;;;2.90;2.37;;;13.60;69.80;;;;;;5087272;28;20292;-70
2021/05/10 00:13:22;;;;;;;4.57;2.67;;;13.60;70.20;;;;;;5082463;28;20311;-71
2021/05/10 00:15:49;;;;;;;3.40;2.60;;;13.60;70.60;;;;;;5084843;28;20207;-70
2021/05/10 00:18:16;;;;;;;4.93;2.83;;;13.60;71.10;;;;;;5086319;28;20205;-70
2021/05/10 00:20:45;;;;;;;3.67;2.43;;;13.50;71.40;;;;;;5087889;28;20666;-70
2021/05/10 00:23:13;;;;;;;3.30;2.40;;;13.50;71.70;;;;;;5091357;28;20209;-69
2021/05/10 00:25:39;;;;;;;3.83;2.70;;;13.50;72.10;;;;;;5089702;28;20304;-69
2021/05/10 00:28:08;;;;;;;3.93;2.53;;;13.40;72.30;;;;;;5079720;28;20210;-69
2021/05/10 00:30:35;;;;;;;3.53;2.40;;;13.40;72.60;;;;;;5087154;28;20262;-71
2021/05/10 00:33:02;;;;;;;3.30;2.30;;;13.40;73.00;;;;;;5083627;28;20216;-70
2021/05/10 00:35:28;;;;;;;3.43;2.10;;;13.40;73.10;;;;;;5087148;28;20240;-70
2021/05/10 00:37:55;;;;;;;4.27;2.33;;;13.40;73.60;;;;;;5082328;28;20209;-69
2021/05/10 00:40:23;;;;;;;3.30;2.17;;;13.40;73.90;;;;;;5091058;28;20243;-69
2021/05/10 00:42:50;;;;;;;4.50;2.23;;;13.30;74.10;;;;;;5091257;28;20215;-70
2021/05/10 00:45:17;;;;;;;4.70;2.33;;;13.30;74.30;;;;;;5076868;28;20834;-70
2021/05/10 00:47:44;;;;;;;6.47;2.60;;;13.30;74.40;;;;;;5077673;28;20289;-70
2021/05/10 00:50:13;;;;;;;3.67;2.37;;;13.30;74.70;;;;;;5086630;28;20212;-69
2021/05/10 00:52:39;;;;;;;2.67;2.33;;;13.30;74.80;;;;;;5088155;28;20232;-70
2021/05/10 00:55:08;;;;;;;3.60;2.80;;;13.30;75.10;;;;;;5088059;28;20211;-70
2021/05/10 00:57:39;;;;;;;3.00;2.30;;;13.30;75.60;;;;;;5079605;28;20216;-70
2021/05/10 01:00:07;;;;;;;3.83;2.30;;;13.20;75.70;;;;;;5079287;28;20252;-69
2021/05/10 01:02:35;;;;;;;3.10;2.33;;;13.20;76.00;;;;;;5079344;28;20208;-70
2021/05/10 01:05:02;;;;;;;2.83;2.07;;;13.20;76.50;;;;;;5092156;28;20211;-70
2021/05/10 01:07:28;;;;;;;4.13;2.57;;;13.20;76.90;;;;;;5079682;28;20208;-70
2021/05/10 01:09:54;;;;;;;4.23;2.43;;;13.10;77.30;;;;;;5088254;28;20200;-70
2021/05/10 01:12:21;;;;;;;3.67;2.40;;;13.10;77.70;;;;;;5085673;28;20689;-70
2021/05/10 01:14:47;;;;;;;3.27;2.63;;;13.10;78.00;;;;;;5088311;28;20231;-69
2021/05/10 01:17:14;;;;;;;2.83;2.20;;;13.10;78.30;;;;;;5088766;28;20207;-70
2021/05/10 01:19:41;;;;;;;4.33;2.10;;;13.10;79.00;;;;;;5081470;28;20617;-69
2021/05/10 01:22:10;;;;;;;3.33;2.40;;;13.00;79.20;;;;;;5087930;28;20267;-69
2021/05/10 01:24:38;;;;;;;3.83;2.47;;;13.00;79.60;;;;;;5086527;28;20265;-71
2021/05/10 01:27:05;;;;;;;6.37;2.30;;;13.00;80.00;;;;;;5082999;28;20231;-70
2021/05/10 01:29:31;;;;;;;3.17;2.20;;;12.90;80.30;;;;;;5089922;28;20259;-69
2021/05/10 01:31:58;;;;;;;2.83;2.10;;;12.90;80.60;;;;;;5087519;28;20329;-70
2021/05/10 01:34:24;;;;;;;4.63;2.20;;;12.90;81.10;;;;;;5094107;28;20229;-69
2021/05/10 01:36:51;;;;;;;3.33;2.20;;;12.90;81.40;;;;;;5085593;28;20224;-70
2021/05/10 01:39:17;;;;;;;3.20;2.50;;;12.90;81.90;;;;;;5082257;28;20213;-70
2021/05/10 01:41:44;;;;;;;6.67;2.50;;;12.90;82.20;;;;;;5088304;28;20239;-70
2021/05/10 01:44:11;;;;;;;2.30;2.10;;;12.80;83.50;;;;;;5086718;28;20534;-69
2021/05/10 01:46:37;;;;;;;2.77;2.30;;;12.70;83.10;;;;;;5081596;28;20650;-70
2021/05/10 01:49:04;;;;;;;2.83;2.40;;;12.80;83.80;;;;;;5091178;28;20287;-70
2021/05/10 01:51:30;;;;;;;2.67;2.17;;;12.70;84.30;;;;;;5097666;28;20240;-69
2021/05/10 01:53:57;;;;;;;3.50;2.50;;;12.70;84.90;;;;;;5088076;28;20264;-70
2021/05/10 01:56:23;;;;;;;4.70;2.27;;;12.70;86.20;;;;;;5092211;28;20295;-70
2021/05/10 01:58:54;;;;;;;3.30;2.50;;;12.60;86.00;;;;;;5080907;28;20239;-70
2021/05/10 02:01:22;;;;;;;2.70;2.27;;;12.60;86.60;;;;;;5087661;28;20661;-69
2021/05/10 02:03:48;;;;;;;2.70;2.47;;;12.60;87.40;;;;;;5079367;28;20209;-70
2021/05/10 02:06:15;;;;;;;4.00;2.50;;;12.60;87.60;;;;;;5081116;28;20223;-70
2021/05/10 02:08:44;;;;;;;3.83;2.50;;;12.50;88.40;;;;;;5085934;28;20225;-71
2021/05/10 02:11:10;;;;;;;3.17;2.50;;;12.50;89.20;;;;;;5087276;28;20236;-71
2021/05/10 02:13:36;;;;;;;2.87;2.57;;;12.40;89.80;;;;;;5081303;28;20608;-70
2021/05/10 02:16:04;;;;;;;2.83;2.33;;;12.40;90.20;;;;;;5087676;28;20210;-71
2021/05/10 02:18:32;;;;;;;2.90;2.20;;;12.30;90.50;;;;;;5086808;28;20630;-71
2021/05/10 02:20:59;;;;;;;2.57;2.33;;;12.30;91.00;;;;;;5081856;28;20208;-70
2021/05/10 02:23:27;;;;;;;3.87;2.80;;;12.20;91.30;;;;;;5087631;28;20201;-69
2021/05/10 02:25:55;;;;;;;2.93;2.37;;;12.30;91.70;;;;;;5084379;28;20307;-69
2021/05/10 02:28:24;;;;;;;2.87;2.50;;;12.20;91.90;;;;;;5086449;28;20215;-69
2021/05/10 02:30:52;;;;;;;3.00;2.40;;;12.20;92.30;;;;;;5085300;28;20250;-69
2021/05/10 02:33:22;;;;;;;3.80;2.23;;;12.10;92.60;;;;;;5090249;28;20307;-70
2021/05/10 02:35:50;;;;;;;4.23;2.30;;;12.10;92.90;;;;;;5082194;28;20613;-69
2021/05/10 02:38:16;;;;;;;3.33;2.37;;;12.10;93.10;;;;;;5086979;28;20200;-69
2021/05/10 02:40:44;;;;;;;3.90;2.40;;;12.00;93.40;;;;;;5091062;28;20212;-70
2021/05/10 02:43:10;;;;;;;3.30;2.50;;;12.00;93.70;;;;;;5089748;28;20193;-69
2021/05/10 02:45:37;;;;;;;4.20;2.30;;;11.90;94.00;;;;;;5084924;28;20205;-71
2021/05/10 02:48:04;;;;;;;4.17;2.90;;;12.00;94.40;;;;;;5081350;28;20665;-70
2021/05/10 02:50:32;;;;;;;6.00;2.60;;;11.90;94.50;;;;;;5081313;28;20201;-69
2021/05/10 02:52:58;;;;;;;3.33;2.47;;;11.90;94.80;;;;;;5083583;28;20244;-70
2021/05/10 02:55:25;;;;;;;5.47;2.37;;;11.90;95.00;;;;;;5083237;28;20659;-69
2021/05/10 02:57:53;;;;;;;3.20;2.60;;;11.80;95.10;;;;;;5086129;28;20204;-70
2021/05/10 03:00:23;;;;;;;2.77;2.40;;;11.90;95.40;;;;;;5079922;28;20211;-69
2021/05/10 03:02:50;;;;;;;3.17;2.40;;;11.80;95.50;;;;;;5074857;28;20201;-70
2021/05/10 03:05:16;;;;;;;2.53;2.20;;;11.80;95.60;;;;;;5084322;28;20207;-70
2021/05/10 03:07:44;;;;;;;3.53;2.43;;;11.80;95.80;;;;;;5075178;28;20295;-70
2021/05/10 03:10:13;;;;;;;2.90;2.30;;;11.80;95.80;;;;;;5085606;28;20203;-70
2021/05/10 03:12:39;;;;;;;3.80;2.87;;;11.80;95.90;;;;;;5083564;28;20217;-70
2021/05/10 03:15:08;;;;;;;2.63;2.30;;;11.80;96.00;;;;;;5087588;28;20241;-69
2021/05/10 03:17:34;;;;;;;3.40;2.37;;;11.80;96.20;;;;;;5078329;28;20221;-69
2021/05/10 03:20:03;;;;;;;3.10;2.50;;;11.90;96.30;;;;;;5083212;28;20204;-70
2021/05/10 03:22:29;;;;;;;3.97;2.17;;;11.80;96.20;;;;;;5079864;28;20212;-70
2021/05/10 03:24:57;;;;;;;6.77;2.40;;;11.90;96.30;;;;;;5082697;28;20210;-70
2021/05/10 03:27:23;;;;;;;6.13;2.50;;;11.90;96.20;;;;;;5086336;28;20208;-69
2021/05/10 03:29:49;;;;;;;3.10;2.40;;;11.90;96.40;;;;;;5079839;28;20334;-70
2021/05/10 03:32:16;;;;;;;3.97;2.30;;;11.90;96.10;;;;;;5083667;28;20257;-70
2021/05/10 03:34:42;;;;;;;3.97;2.57;;;11.90;96.30;;;;;;5084297;28;20720;-70
2021/05/10 03:37:08;;;;;;;3.80;2.47;;;12.00;96.00;;;;;;5078298;28;20216;-69
2021/05/10 03:39:35;;;;;;;4.57;2.73;;;12.00;95.90;;;;;;5083316;28;20343;-70
2021/05/10 03:42:03;;;;;;;3.43;2.20;;;12.10;95.80;;;;;;5087194;28;20244;-69
2021/05/10 03:44:30;;;;;;;4.83;2.33;;;12.10;95.70;;;;;;5090959;28;20226;-70
2021/05/10 03:46:56;;;;;;;4.30;2.50;;;12.10;95.50;;;;;;5081994;28;20557;-69
2021/05/10 03:49:22;;;;;;;2.77;2.27;;;12.20;95.40;;;;;;5088374;28;20210;-69
2021/05/10 03:51:49;;;;;;;3.83;2.57;;;12.20;95.30;;;;;;5083397;28;20578;-69
2021/05/10 03:54:15;;;;;;;2.70;2.10;;;12.20;95.20;;;;;;5077978;28;20694;-70
2021/05/10 03:56:41;;;;;;;3.00;2.03;;;12.30;95.30;;;;;;5083305;28;20209;-69
2021/05/10 03:59:08;;;;;;;3.10;2.27;;;12.30;94.80;;;;;;5088002;28;20309;-70
2021/05/10 04:01:35;;;;;;;3.20;2.43;;;12.30;94.80;;;;;;5092236;28;20653;-70
2021/05/10 04:04:07;;;;;;;3.83;2.20;;;12.30;94.80;;;;;;5082111;28;20212;-70
2021/05/10 04:07:09;;;;;;;5.53;2.60;;;12.30;94.70;;;;;;5090004;28;20208;-70
2021/05/10 04:10:01;;;;;;;3.90;2.83;;;12.40;94.60;;;;;;5083795;28;20649;-69
2021/05/10 04:15:13;;;;;;;3.17;2.50;;;12.40;94.30;;;;;;5084612;28;20281;-69
2021/05/10 04:17:40;;;;;;;2.93;2.07;;;12.50;94.10;;;;;;5090557;28;20209;-71
2021/05/10 04:20:08;;;;;;;3.03;2.23;;;12.50;94.00;;;;;;5085972;28;20205;-70
2021/05/10 04:22:34;;;;;;;3.00;2.03;;;12.60;93.90;;;;;;5093170;28;20223;-70
2021/05/10 04:25:01;;;;;;;4.77;2.60;;;12.60;93.80;;;;;;5078982;28;20209;-70
2021/05/10 04:27:27;;;;;;;4.33;2.70;;;12.60;93.30;;;;;;5080699;28;20295;-69
2021/05/10 04:29:54;;;;;;;3.37;2.50;;;12.60;93.30;;;;;;5089335;28;20205;-70
2021/05/10 04:32:21;;;;;;;2.77;2.20;;;12.70;93.30;;;;;;5074611;28;20221;-70
2021/05/10 04:34:48;;;;;;;4.17;2.50;;;12.80;93.10;;;;;;5084814;28;20335;-70
2021/05/10 04:37:15;;;;;;;5.37;2.70;;;12.80;93.00;;;;;;5090610;28;20284;-71
2021/05/10 04:39:41;;;;;;;3.03;2.73;;;12.90;92.80;;;;;;5079065;28;20212;-70
2021/05/10 04:42:08;;;;;;;4.23;2.30;;;12.90;92.60;;;;;;5090551;28;20196;-70
2021/05/10 04:44:34;;;;;;;3.17;2.40;;;12.90;92.40;;;;;;5086924;28;20221;-70
2021/05/10 04:47:01;;;;;;;3.17;2.40;;;13.00;92.30;;;;;;5083241;28;20297;-70
2021/05/10 04:49:28;;;;;;;3.67;2.20;;;13.00;92.10;;;;;;5092193;28;20295;-69
2021/05/10 04:51:54;;;;;;;3.00;2.70;;;13.10;92.00;;;;;;5086504;28;20201;-70
2021/05/10 04:54:21;;;;;;;5.17;2.67;;;13.20;91.90;;;;;;5086701;28;20205;-70
2021/05/10 04:56:47;;;;;;;3.97;2.40;;;13.30;91.70;;;;;;5089767;28;20219;-69
2021/05/10 04:59:13;;;;;;;2.00;1.80;;;13.30;91.50;;;;;;5088812;28;20283;-70
2021/05/10 05:01:40;;;;;;;3.90;2.67;;;13.40;91.20;;;;;;5085360;28;20610;-70
2021/05/10 05:04:06;;;;;;;3.50;2.37;;;13.40;91.00;;;;;;5086475;28;20250;-71
2021/05/10 05:06:33;;;;;;;4.40;2.57;;;13.50;91.00;;;;;;5079945;28;20206;-70
2021/05/10 05:09:00;;;;;;;6.37;2.53;;;13.60;90.80;;;;;;5086321;28;20245;-70
2021/05/10 05:11:26;;;;;;;4.20;2.43;;;13.60;90.60;;;;;;5092183;28;20505;-70
2021/05/10 05:13:52;;;;;;;4.33;2.83;;;13.70;90.40;;;;;;5081219;28;20239;-71
2021/05/10 05:16:19;;;;;;;6.33;2.30;;;13.80;90.20;;;;;;5078420;28;20205;-71
2021/05/10 05:18:45;;;;;;;4.40;2.20;;;13.90;90.00;;;;;;5081806;28;20299;-69
2021/05/10 05:21:11;;;;;;;3.73;2.40;;;13.90;89.40;;;;;;5091613;28;20207;-70
2021/05/10 05:23:38;;;;;;;4.17;2.67;;;14.00;88.70;;;;;;5083908;28;20288;-72
2021/05/10 05:26:05;;;;;;;5.13;2.33;;;14.00;88.30;;;;;;5090006;28;20233;-70
2021/05/10 05:28:32;;;;;;;5.47;2.63;;;14.10;87.90;;;;;;5088941;28;20204;-70
2021/05/10 05:31:00;;;;;;;3.73;2.50;;;14.10;87.70;;;;;;5086646;28;20219;-71
2021/05/10 05:33:26;;;;;;;4.53;2.50;;;14.20;87.70;;;;;;5077388;28;20316;-72
2021/05/10 05:35:53;;;;;;;3.53;2.10;;;14.30;87.50;;;;;;5084794;28;20235;-71
2021/05/10 05:38:20;;;;;;;3.77;2.40;;;14.40;87.10;;;;;;5084126;28;20216;-72
2021/05/10 05:40:47;;;;;;;4.60;2.60;;;14.50;86.90;;;;;;5092885;28;20683;-72
2021/05/10 05:43:14;;;;;;;2.33;1.77;;;14.60;86.50;;;;;;5087335;28;20597;-71
2021/05/10 05:45:42;;;;;;;4.37;2.40;;;14.60;86.10;;;;;;5078383;28;20215;-72
2021/05/10 05:48:10;;;;;;;4.53;3.10;;;14.70;85.90;;;;;;5083178;28;20264;-72
2021/05/10 05:50:38;;;;;;;3.73;2.13;;;14.80;85.60;;;;;;5089656;28;20295;-75
2021/05/10 05:53:05;;;;;;;5.07;2.33;;;14.90;85.00;;;;;;5084428;28;20254;-75
2021/05/10 05:55:31;;;;;;;10.20;2.63;;;15.00;84.30;;;;;;5077167;28;20208;-73
2021/05/10 05:57:59;;;;;;;5.00;2.63;;;15.00;83.70;;;;;;5085163;28;20262;-73
2021/05/10 06:00:26;;;;;;;4.40;2.50;;;15.10;83.50;;;;;;5082518;28;20288;-73
2021/05/10 06:02:53;;;;;;;3.90;2.27;;;15.10;83.30;;;;;;5082656;28;20678;-74
2021/05/10 06:05:19;;;;;;;5.50;2.40;;;15.20;82.60;;;;;;5089823;28;20590;-73
2021/05/10 06:07:47;;;;;;;4.07;2.40;;;15.10;82.10;;;;;;5083619;28;20625;-74
2021/05/10 06:10:16;;;;;;;4.33;2.13;;;15.30;82.50;;;;;;5085459;28;20229;-76
2021/05/10 06:12:45;;;;;;;4.10;2.50;;;15.40;82.50;;;;;;5076912;28;20448;-73
2021/05/10 06:15:14;;;;;;;2.73;2.33;;;15.40;81.50;;;;;;5085195;28;20393;-73
2021/05/10 06:17:41;;;;;;;6.83;2.70;;;15.50;81.00;;;;;;5071745;28;20206;-72
2021/05/10 06:20:11;;;;;;;4.87;2.30;;;15.50;80.50;;;;;;5080088;28;20205;-74
2021/05/10 06:22:38;;;;;;;5.77;2.57;;;15.60;80.60;;;;;;5087952;28;20259;-73
2021/05/10 06:25:06;;;;;;;4.50;2.27;;;15.60;80.40;;;;;;5076205;28;20570;-75
2021/05/10 06:27:40;;;;;;;3.23;2.53;;;15.70;80.00;;;;;;5126256;27;20575;-75
2021/05/10 06:30:09;;;;;;;3.50;2.40;;;15.80;79.80;;;;;;5117559;28;20196;-73
2021/05/10 06:32:35;;;;;;;5.40;2.63;;;15.80;79.40;;;;;;5127611;27;20212;-73
2021/05/10 06:35:01;;;;;;;3.40;2.10;;;15.90;79.20;;;;;;5118536;28;20628;-75
2021/05/10 06:37:29;;;;;;;4.60;2.37;;;15.90;79.80;;;;;;5105718;28;20200;-75
2021/05/10 06:39:56;;;;;;;5.13;2.87;;;15.90;79.90;;;;;;5120291;28;20301;-74
2021/05/10 06:42:23;;;;;;;5.33;2.37;;;16.00;80.00;;;;;;5115259;28;20314;-73
2021/05/10 06:44:51;;;;;;;5.77;2.80;;;16.10;79.30;;;;;;5109668;28;20208;-73
2021/05/10 06:47:17;;;;;;;5.57;1.90;;;16.20;79.50;;;;;;5112742;28;20223;-69
2021/05/10 06:49:43;;;;;;;3.27;2.40;;;16.30;78.80;;;;;;5117373;28;20312;-74
2021/05/10 06:52:10;;;;;;;8.80;2.40;;;16.40;78.10;;;;;;5112240;28;20299;-74
2021/05/10 06:54:36;;;;;;;6.77;2.20;;;16.50;77.80;;;;;;5114343;28;20299;-74
2021/05/10 06:57:03;;;;;;;2.60;2.03;;;16.60;77.00;;;;;;5117152;28;20708;-72
2021/05/10 06:59:29;;;;;;;5.70;2.10;;;16.60;76.10;;;;;;5114385;28;20238;-74
2021/05/10 07:01:57;;;;;;;4.30;2.43;;;16.70;76.00;;;;;;5113090;28;20620;-74
2021/05/10 07:04:23;;;;;;;5.40;2.47;;;16.70;75.00;;;;;;5107393;28;20200;-72
2021/05/10 07:06:50;;;;;;;2.43;1.90;;;16.80;73.90;;;;;;5118235;28;20323;-75
2021/05/10 07:09:16;;;;;;;8.10;3.00;;;16.80;73.40;;;;;;5116867;28;20676;-71
2021/05/10 07:11:43;;;;;;;3.93;1.93;;;16.90;73.70;;;;;;5118701;28;20293;-73
2021/05/10 07:14:09;;;;;;;2.67;1.93;;;17.00;73.10;;;;;;5114408;28;20265;-72
2021/05/10 07:16:35;;;;;;;4.23;1.90;;;17.10;72.80;;;;;;5113655;28;20303;-73
2021/05/10 07:19:03;;;;;;;2.47;1.77;;;17.20;71.90;;;;;;5114620;28;20212;-73
2021/05/10 07:21:30;;;;;;;3.73;1.90;;;17.30;70.70;;;;;;5113119;28;20268;-72
2021/05/10 07:23:56;;;;;;;2.77;1.73;;;17.50;70.20;;;;;;5112614;28;20222;-74
2021/05/10 07:26:23;;;;;;;2.92;1.98;;;17.60;69.30;;;;;;5094904;28;20237;-71
2021/05/10 07:28:49;;;;;;;4.77;2.00;;;17.70;68.50;;;;;;5112723;28;20293;-75
2021/05/10 07:31:16;;;;;;;6.25;2.13;;;17.80;67.60;;;;;;5112420;28;20211;-72
2021/05/10 07:33:42;;;;;;;5.38;1.75;;;17.90;68.00;;;;;;5109013;28;20216;-72
2021/05/10 07:36:10;;;;;;;2.80;2.10;;;18.00;67.10;;;;;;5111449;28;20215;-71
2021/05/10 07:38:37;;;;;;;4.00;1.77;;;18.20;67.00;;;;;;5095954;28;20379;-74
2021/05/10 07:41:03;;;;;;;3.83;1.38;;;18.30;65.50;;;;;;5095549;28;20239;-72
2021/05/10 07:43:30;;;;;;;3.08;1.83;;;18.40;64.20;;;;;;5095756;28;20209;-73
2021/05/10 07:45:56;;;;;;;7.43;2.53;;;18.50;63.40;;;;;;5103898;28;20330;-72
2021/05/10 07:48:23;;;;;;;2.03;1.70;;;18.70;63.00;;;;;;5098728;28;20208;-71
2021/05/10 07:50:49;;;;;;;1.90;1.60;;;18.70;61.70;;;;;;5111084;28;20208;-74
2021/05/10 07:53:17;;;;;;;7.55;1.88;;;18.80;60.40;;;;;;5099322;28;20280;-73
2021/05/10 07:55:43;;;;;;;7.85;2.15;;;18.80;59.90;;;;;;5106597;28;20275;-73
2021/05/10 07:58:10;;;;;;;4.38;2.00;;;18.90;59.80;;;;;;5112516;28;20233;-76
2021/05/10 08:00:38;;;;;;;2.80;1.65;;;18.90;59.90;;;;;;5096529;28;20251;-72
2021/05/10 08:03:06;;;;;;;2.00;1.60;;;19.00;59.40;;;;;;5096042;28;20208;-73
2021/05/10 08:05:34;;;;;;;2.67;1.70;;;19.10;59.70;;;;;;5097868;28;20257;-73
2021/05/10 08:08:00;;;;;;;1.67;1.38;;;19.20;59.40;;;;;;5095979;28;20333;-73
2021/05/10 08:10:28;;;;;;;3.17;2.20;;;19.30;59.00;;;;;;5102649;28;20209;-71
2021/05/10 08:12:55;;;;;;;3.78;1.80;;;19.40;59.00;;;;;;5105104;28;20288;-73
2021/05/10 08:15:22;;;;;;;4.95;1.75;;;19.50;58.60;;;;;;5096757;28;20265;-73
2021/05/10 08:17:51;;;;;;;3.13;1.30;;;19.60;58.70;;;;;;5097391;28;20215;-72
2021/05/10 08:20:17;;;;;;;1.63;1.33;;;19.70;58.40;;;;;;5089956;28;20629;-74
2021/05/10 08:22:45;;;;;;;2.92;1.30;;;19.80;58.30;;;;;;5102355;28;20286;-73
2021/05/10 08:25:13;;;;;;;2.08;1.45;;;20.00;58.10;;;;;;5094011;28;20196;-73
2021/05/10 08:27:41;;;;;;;1.58;1.30;;;20.10;57.20;;;;;;5096312;28;20247;-74
2021/05/10 08:30:10;;;;;;;5.82;1.40;;;20.30;57.00;;;;;;5096688;28;20650;-72
2021/05/10 08:32:38;;;;;;;2.28;1.42;;;20.40;56.00;;;;;;5097807;28;20651;-72
2021/05/10 08:35:05;;;;;;;1.30;1.20;;;20.40;55.50;;;;;;5111747;28;20249;-72
2021/05/10 08:37:32;;;;;;;4.22;1.75;;;20.50;55.20;;;;;;5107610;28;20212;-72
2021/05/10 08:39:59;;;;;;;4.35;1.80;;;20.60;55.20;;;;;;5092586;28;20757;-72
2021/05/10 08:42:27;;;;;;;1.60;1.10;;;20.70;55.30;;;;;;5101119;28;20207;-72
2021/05/10 08:44:55;;;;;;;4.68;1.67;;;20.90;55.40;;;;;;5101121;28;20196;-72
2021/05/10 08:47:22;;;;;;;3.60;1.30;;;21.10;55.10;;;;;;5100400;28;20215;-72
2021/05/10 08:49:49;;;;;;;1.85;1.50;;;21.20;53.70;;;;;;5101583;28;20201;-73
2021/05/10 08:52:16;;;;;;;3.95;1.48;;;21.30;53.00;;;;;;5098158;28;20271;-72
2021/05/10 08:54:42;;;;;;;2.00;1.38;;;21.30;52.70;;;;;;5094329;28;20284;-72
2021/05/10 08:57:09;;;;;;;2.88;1.20;;;21.30;52.60;;;;;;5096893;28;20244;-73
2021/05/10 08:59:35;;;;;;;5.97;1.60;;;21.40;52.50;;;;;;5097013;28;20230;-73
2021/05/10 09:02:03;;;;;;;1.60;1.50;;;21.60;52.50;;;;;;5100186;28;20208;-72
2021/05/10 09:04:34;;;;;;;2.03;1.40;;;21.70;51.60;;;;;;5099274;28;20596;-73
2021/05/10 09:07:14;;;;;;;3.33;1.73;;;21.80;51.50;;;;;;5099102;28;20259;-72
2021/05/10 09:09:51;;;;;;;2.67;1.17;;;21.90;50.80;;;;;;5091616;28;20211;-72
2021/05/10 09:12:20;;;;;;;3.63;1.52;;;22.00;50.50;;;;;;5105310;28;20239;-72
2021/05/10 09:14:46;;;;;;;3.47;1.58;;;22.10;50.60;;;;;;5098039;28;20247;-72
2021/05/10 09:17:14;;;;;;;2.35;1.25;;;22.40;50.70;;;;;;5095813;28;20249;-72
2021/05/10 09:19:44;;;;;;;1.50;1.15;;;22.60;49.90;;;;;;5095737;28;20208;-72
2021/05/10 09:22:11;;;;;;;2.25;1.23;;;22.70;49.30;;;;;;5097973;28;20200;-71
2021/05/10 09:24:49;;;;;;;1.42;1.10;;;22.80;48.20;;;;;;5100165;28;20212;-73
2021/05/10 09:27:27;;;;;;;2.65;1.17;;;22.80;48.60;;;;;;5091419;28;20426;-73
2021/05/10 09:30:22;;;;;;;1.95;1.20;;;22.90;48.70;;;;;;5100562;28;20210;-73
2021/05/10 09:32:54;;;;;;;1.48;1.23;;;23.10;48.50;;;;;;5102339;28;20217;-72
2021/05/10 09:35:30;;;;;;;1.88;1.42;;;23.20;48.20;;;;;;5090547;28;20553;-71
2021/05/10 09:38:05;;;;;;;4.10;1.35;;;23.30;48.00;;;;;;5104180;28;20287;-72
2021/05/10 09:40:47;;;;;;;6.15;1.40;;;23.50;47.90;;;;;;5093729;28;20663;-72
2021/05/10 09:43:17;;;;;;;8.80;1.45;;;23.60;47.90;;;;;;5095672;28;20204;-72
2021/05/10 09:45:47;;;;;;;2.53;1.23;;;23.90;47.60;;;;;;5093555;28;20204;-72
2021/05/10 09:48:21;;;;;;;2.78;1.27;;;24.10;46.90;;;;;;5096483;28;20209;-71
2021/05/10 09:50:53;;;;;;;1.30;1.05;;;24.20;46.00;;;;;;5095083;28;20723;-70
2021/05/10 09:53:32;;;;;;;1.73;1.38;;;24.30;46.20;;;;;;5091137;28;20220;-72
2021/05/10 09:55:59;;;;;;;1.10;1.00;;;24.40;46.00;;;;;;5094326;28;20649;-73
2021/05/10 09:58:35;;;;;;;1.45;1.35;;;24.50;45.50;;;;;;5097467;28;20204;-72
2021/05/10 10:01:02;;;;;;;1.63;1.00;;;24.60;45.20;;;;;;5093414;28;20193;-73
2021/05/10 10:03:33;;;;;;;2.40;1.15;;;24.60;45.20;;;;;;5094306;28;20290;-73
2021/05/10 10:06:02;;;;;;;2.60;1.35;;;24.70;45.10;;;;;;5094468;28;20221;-75
2021/05/10 10:08:29;;;;;;;2.13;1.50;;;24.80;44.90;;;;;;5102182;28;20212;-72
2021/05/10 10:10:56;;;;;;;1.05;0.95;;;25.00;44.20;;;;;;5090284;28;20205;-72
2021/05/10 10:13:23;;;;;;;4.88;1.23;;;25.00;43.90;;;;;;5091979;28;20221;-74
2021/05/10 10:15:50;;;;;;;1.58;1.15;;;25.00;44.00;;;;;;5086195;28;20208;-74
2021/05/10 10:18:19;;;;;;;2.53;1.20;;;25.00;44.60;;;;;;5094373;28;20288;-72
2021/05/10 10:20:48;;;;;;;1.67;1.20;;;25.10;44.10;;;;;;5101592;28;20239;-74
2021/05/10 10:23:16;;;;;;;2.22;1.10;;;25.30;44.10;;;;;;5095460;28;20197;-74
2021/05/10 10:25:44;;;;;;;1.10;0.98;;;25.40;44.00;;;;;;5095645;28;20240;-72
2021/05/10 10:28:15;;;;;;;4.07;1.42;;;25.50;43.30;;;;;;5094310;28;20628;-72
2021/05/10 10:30:47;;;;;;;1.10;0.82;;;25.40;43.30;;;;;;5104466;28;20200;-72
2021/05/10 10:33:23;;;;;;;1.65;1.00;;;25.50;43.40;;;;;;5099769;28;20273;-72
2021/05/10 10:35:53;;;;;;;2.30;1.50;;;25.60;42.60;;;;;;5103164;28;20196;-72
2021/05/10 10:38:31;;;;;;;3.42;1.25;;;25.70;42.50;;;;;;5112265;28;20621;-72
2021/05/10 10:41:19;;;;;;;1.35;0.93;;;25.60;41.90;;;;;;5089785;28;20228;-72
2021/05/10 10:43:46;;;;;;;1.38;0.90;;;25.60;42.10;;;;;;5086890;28;20240;-70
2021/05/10 10:46:26;;;;;;;2.92;1.10;;;25.60;42.10;;;;;;5104664;28;20657;-73
2021/05/10 10:48:58;;;;;;;4.43;1.40;;;25.60;41.50;;;;;;5098301;28;20705;-72
2021/05/10 10:51:26;;;;;;;2.05;1.10;;;25.60;41.70;;;;;;5099642;28;20205;-72
2021/05/10 10:53:55;;;;;;;4.30;1.20;;;25.50;41.30;;;;;;5093630;28;20204;-72
2021/05/10 10:56:52;;;;;;;2.15;1.33;;;25.40;41.80;;;;;;5097728;28;20212;-72
2021/05/10 10:59:30;;;;;;;4.50;1.10;;;25.30;42.50;;;;;;5093676;28;20565;-72
2021/05/10 11:01:58;;;;;;;3.85;1.30;;;25.30;42.70;;;;;;5107913;28;20690;-72
2021/05/10 11:04:26;;;;;;;3.40;1.23;;;25.30;43.10;;;;;;5083364;28;20197;-72
2021/05/10 11:06:53;;;;;;;3.30;1.20;;;25.40;42.30;;;;;;5107125;28;20763;-73
2021/05/10 11:09:49;;;;;;;1.85;1.20;;;25.50;42.00;;;;;;5095214;28;20200;-74
2021/05/10 11:12:47;;;;;;;3.22;1.00;;;25.50;41.80;;;;;;5084525;28;20212;-73
2021/05/10 11:15:14;;;;;;;1.67;1.10;;;25.50;41.80;;;;;;5084019;28;20251;-72
2021/05/10 11:17:54;;;;;;;4.60;1.13;;;25.50;42.30;;;;;;5099154;28;20207;-73
2021/05/10 11:20:37;;;;;;;1.75;0.98;;;25.50;41.90;;;;;;5095710;28;20216;-75
2021/05/10 11:23:30;;;;;;;3.03;1.50;;;25.50;41.20;;;;;;5093556;28;20208;-74
2021/05/10 11:26:00;;;;;;;2.42;0.98;;;25.50;41.50;;;;;;5097804;28;20251;-72
2021/05/10 11:28:47;;;;;;;1.50;1.13;;;25.60;41.50;;;;;;5097163;28;20208;-73
2021/05/10 11:31:16;;;;;;;1.35;1.15;;;25.70;42.40;;;;;;5104800;28;20254;-72
2021/05/10 11:34:11;;;;;;;2.70;1.00;;;25.80;41.70;;;;;;5097223;28;20280;-70
2021/05/10 11:36:47;;;;;;;2.33;1.20;;;25.90;41.50;;;;;;5095758;28;20582;-71
2021/05/10 11:39:19;;;;;;;1.75;1.17;;;26.00;41.60;;;;;;5088192;28;20655;-72
2021/05/10 11:41:46;;;;;;;1.42;1.10;;;26.10;41.00;;;;;;5096713;28;20239;-71
2021/05/10 11:44:20;;;;;;;4.05;0.90;;;26.20;40.50;;;;;;5090320;28;20273;-72
2021/05/10 11:46:48;;;;;;;2.45;0.95;;;26.20;41.00;;;;;;5101251;28;20302;-71
2021/05/10 11:49:28;;;;;;;2.97;0.93;;;26.20;41.10;;;;;;5101310;28;20205;-72
2021/05/10 11:51:56;;;;;;;1.52;0.93;;;26.30;40.70;;;;;;5104636;28;20227;-70
2021/05/10 11:54:24;;;;;;;2.33;1.23;;;26.30;40.60;;;;;;5100961;28;20205;-71
2021/05/10 11:56:51;;;;;;;1.40;1.10;;;26.30;40.50;;;;;;5110639;28;20203;-71
2021/05/10 12:02:12;;;;;;;6.82;1.20;;;26.20;40.80;;;;;;5097716;28;20203;-72
2021/05/10 12:04:40;;;;;;;1.75;0.98;;;26.30;41.00;;;;;;5099413;28;20564;-70
2021/05/10 12:07:07;;;;;;;2.25;1.10;;;26.40;40.80;;;;;;5098521;28;20659;-72
2021/05/10 12:09:46;;;;;;;3.63;1.10;;;26.50;41.20;;;;;;5098670;28;20244;-77
2021/05/10 12:12:33;;;;;;;2.67;1.10;;;26.50;40.40;;;;;;5091865;28;20208;-74
2021/05/10 12:15:07;;;;;;;2.47;1.00;;;26.60;40.60;;;;;;5097865;28;20231;-73
2021/05/10 12:17:34;;;;;;;1.67;1.10;;;26.50;40.10;;;;;;5097712;28;20229;-72
2021/05/10 12:20:07;;;;;;;1.08;0.98;;;26.40;40.80;;;;;;5097523;28;20204;-72
2021/05/10 12:22:35;;;;;;;2.47;1.00;;;26.50;41.00;;;;;;5097354;28;20611;-73
2021/05/10 12:25:06;;;;;;;3.47;0.95;;;26.60;40.90;;;;;;5096181;28;20196;-73
2021/05/10 12:27:37;;;;;;;2.05;0.88;;;26.60;40.40;;;;;;5096162;28;20243;-72
2021/05/10 12:30:07;;;;;;;0.75;0.75;;;26.40;39.80;;;;;;5083114;28;20542;-72
2021/05/10 12:32:33;;;;;;;3.40;1.10;;;26.30;40.30;;;;;;5096231;28;20253;-70
2021/05/10 12:35:00;;;;;;;4.78;1.10;;;26.20;40.50;;;;;;5096193;28;20204;-72
2021/05/10 12:37:26;;;;;;;1.38;1.20;;;26.20;40.70;;;;;;5104660;28;20249;-72
2021/05/10 12:40:06;;;;;;;4.35;1.05;;;26.30;40.80;;;;;;5101827;28;20216;-69
2021/05/10 12:42:33;;;;;;;0.95;0.93;;;26.20;40.40;;;;;;5097478;28;20344;-72
2021/05/10 12:45:01;;;;;;;1.92;1.02;;;26.10;39.80;;;;;;5100428;28;20216;-73
2021/05/10 12:47:45;;;;;;;5.63;1.00;;;26.10;40.00;;;;;;5095338;28;20308;-72
2021/05/10 12:50:13;;;;;;;0.93;0.93;;;26.20;40.00;;;;;;5096597;28;20204;-74
2021/05/10 12:52:47;;;;;;;1.35;0.95;;;26.20;40.10;;;;;;5099124;28;20317;-72
2021/05/10 12:55:19;;;;;;;3.22;1.00;;;26.30;40.30;;;;;;5095422;28;20291;-71
2021/05/10 12:57:46;;;;;;;2.92;0.80;;;26.30;40.10;;;;;;5104148;28;20264;-72
2021/05/10 13:00:30;;;;;;;3.85;0.90;;;26.30;40.60;;;;;;5097134;28;20632;-70
2021/05/10 13:02:57;;;;;;;2.55;1.35;;;26.30;41.20;;;;;;5105128;28;20199;-71